Time;durP1;ratioP1;P1;durP2;ratioP2;P2;SDS_P1;SDS_P2;PMS_P1;PMS_P2;Temp;Humidity;BMP_temperature;BMP_pressure;BME280_temperature;BME280_humidity;BME280_pressure;Samples;Min_cycle;Max_cycle;Signal;HPM_P1;HPM_P2
2022/05/23 00:01:49;;;;;;;8.98;4.70;;;;;;;;;;5062608;28;20048;-61
2022/05/23 00:04:15;;;;;;;7.28;4.32;;;;;;;;;;5060150;28;20452;-61
2022/05/23 00:06:42;;;;;;;7.95;4.38;;;;;;;;;;5076207;28;20024;-61
2022/05/23 00:09:09;;;;;;;7.40;4.18;;;;;;;;;;5057794;28;20037;-61
2022/05/23 00:11:35;;;;;;;9.98;4.40;;;;;;;;;;5059454;28;20199;-61
2022/05/23 00:14:01;;;;;;;12.98;4.80;;;;;;;;;;5062484;28;20021;-60
2022/05/23 00:16:38;;;;;;;13.38;4.53;;;;;;;;;;5061858;28;20032;-61
2022/05/23 00:19:04;;;;;;;6.63;4.40;;;;;;;;;;5061908;28;20025;-61
2022/05/23 00:21:30;;;;;;;11.43;4.10;;;;;;;;;;5063606;28;20127;-61
2022/05/23 00:23:56;;;;;;;6.20;4.10;;;;;;;;;;5065845;28;20028;-60
2022/05/23 00:26:22;;;;;;;15.00;4.95;;;;;;;;;;5067024;28;20020;-60
2022/05/23 00:28:49;;;;;;;9.63;4.65;;;;;;;;;;5065032;28;20485;-61
2022/05/23 00:31:15;;;;;;;9.38;4.55;;;;;;;;;;5065287;28;20044;-60
2022/05/23 00:36:31;;;;;;;10.75;4.30;;;;;;;;;;5058583;28;20490;-61
2022/05/23 00:38:56;;;;;;;12.77;4.68;;;;;;;;;;5063766;28;20032;-61
2022/05/23 00:44:30;;;;;;;8.30;4.40;;;;;;;;;;5063276;28;20033;-61
2022/05/23 00:47:03;;;;;;;10.52;4.80;;;;;;;;;;5061437;28;20032;-61
2022/05/23 00:49:30;;;;;;;10.13;4.57;;;;;;;;;;5066320;28;20727;-61
2022/05/23 00:51:59;;;;;;;8.43;4.60;;;;;;;;;;5060715;28;20040;-60
2022/05/23 00:54:33;;;;;;;10.77;4.55;;;;;;;;;;5052506;28;20111;-61
2022/05/23 00:56:59;;;;;;;8.32;4.63;;;;;;;;;;5064442;28;20024;-61
2022/05/23 00:59:30;;;;;;;10.00;5.30;;;;;;;;;;5063291;28;20085;-61
2022/05/23 01:01:57;;;;;;;8.15;4.50;;;;;;;;;;5060320;28;20049;-61
2022/05/23 01:04:23;;;;;;;7.75;4.15;;;;;;;;;;5069729;28;20041;-61
2022/05/23 01:06:49;;;;;;;15.00;5.05;;;;;;;;;;5056671;28;20032;-61
2022/05/23 01:09:14;;;;;;;8.18;4.57;;;;;;;;;;5056234;28;22372;-61
2022/05/23 01:11:40;;;;;;;5.50;4.43;;;;;;;;;;5062044;28;20525;-61
2022/05/23 01:14:07;;;;;;;6.63;4.20;;;;;;;;;;5058660;28;20039;-61
2022/05/23 01:16:33;;;;;;;13.80;4.80;;;;;;;;;;5059110;28;20488;-61
2022/05/23 01:18:59;;;;;;;8.40;4.70;;;;;;;;;;5052018;28;20029;-61
2022/05/23 01:21:51;;;;;;;9.43;4.60;;;;;;;;;;5060991;28;20028;-60
2022/05/23 01:24:44;;;;;;;7.90;4.45;;;;;;;;;;5064323;28;20028;-61
2022/05/23 01:27:11;;;;;;;7.70;4.72;;;;;;;;;;5056660;28;20086;-61
2022/05/23 01:29:37;;;;;;;9.32;4.78;;;;;;;;;;5058701;28;20048;-61
2022/05/23 01:32:03;;;;;;;10.65;4.63;;;;;;;;;;5067023;28;20058;-61
2022/05/23 01:34:29;;;;;;;9.00;4.82;;;;;;;;;;5053575;28;20469;-61
2022/05/23 01:36:55;;;;;;;5.43;4.00;;;;;;;;;;5056503;28;20028;-60
2022/05/23 01:39:20;;;;;;;7.72;4.90;;;;;;;;;;5056126;28;20044;-60
2022/05/23 01:41:46;;;;;;;11.48;4.60;;;;;;;;;;5070852;28;20036;-60
2022/05/23 01:44:12;;;;;;;8.18;4.70;;;;;;;;;;5053292;28;20107;-60
2022/05/23 01:46:38;;;;;;;6.93;4.28;;;;;;;;;;5054166;28;20039;-60
2022/05/23 01:49:04;;;;;;;11.65;5.18;;;;;;;;;;5058203;28;20112;-60
2022/05/23 01:51:30;;;;;;;6.65;4.03;;;;;;;;;;5060654;28;20028;-61
2022/05/23 01:53:55;;;;;;;12.15;4.63;;;;;;;;;;5063435;28;20123;-60
2022/05/23 01:56:21;;;;;;;9.90;5.05;;;;;;;;;;5066817;28;20036;-61
2022/05/23 02:01:31;;;;;;;11.55;4.57;;;;;;;;;;5060690;28;20032;-60
2022/05/23 02:03:58;;;;;;;7.97;4.50;;;;;;;;;;5064007;28;20472;-60
2022/05/23 02:06:23;;;;;;;8.48;4.47;;;;;;;;;;5063770;28;20033;-61
2022/05/23 02:08:49;;;;;;;11.38;4.97;;;;;;;;;;5053776;28;20024;-61
2022/05/23 02:11:15;;;;;;;12.50;5.15;;;;;;;;;;5059841;28;20064;-60
2022/05/23 02:13:43;;;;;;;7.22;4.50;;;;;;;;;;5057492;28;20032;-61
2022/05/23 02:16:09;;;;;;;8.75;4.57;;;;;;;;;;5051124;28;20032;-60
2022/05/23 02:18:35;;;;;;;6.20;4.10;;;;;;;;;;5071660;28;20448;-59
2022/05/23 02:21:01;;;;;;;11.30;4.50;;;;;;;;;;5065746;28;20021;-60
2022/05/23 02:23:27;;;;;;;9.10;4.68;;;;;;;;;;5066513;28;20090;-60
2022/05/23 02:25:53;;;;;;;11.32;4.65;;;;;;;;;;5053174;28;20052;-61
2022/05/23 02:28:19;;;;;;;7.53;4.65;;;;;;;;;;5060523;28;20032;-61
2022/05/23 02:30:47;;;;;;;11.68;4.90;;;;;;;;;;5057743;28;20481;-60
2022/05/23 02:33:14;;;;;;;9.77;5.45;;;;;;;;;;5068373;28;20051;-60
2022/05/23 02:35:40;;;;;;;6.88;4.47;;;;;;;;;;5063557;28;20037;-61
2022/05/23 02:38:05;;;;;;;8.30;4.47;;;;;;;;;;5057426;28;20086;-60
2022/05/23 02:40:31;;;;;;;8.13;4.93;;;;;;;;;;5057187;28;20090;-60
2022/05/23 02:42:57;;;;;;;6.78;4.55;;;;;;;;;;5069436;28;20115;-60
2022/05/23 02:45:23;;;;;;;5.20;4.50;;;;;;;;;;5061531;28;20135;-61
2022/05/23 02:47:49;;;;;;;8.55;4.75;;;;;;;;;;5065580;28;20754;-61
2022/05/23 02:50:16;;;;;;;7.55;4.72;;;;;;;;;;5053281;28;20028;-60
2022/05/23 02:52:43;;;;;;;8.18;4.47;;;;;;;;;;5066933;28;20482;-61
2022/05/23 02:55:10;;;;;;;7.15;4.65;;;;;;;;;;5053137;28;20105;-60
2022/05/23 02:57:36;;;;;;;8.30;4.10;;;;;;;;;;5067063;28;20402;-60
2022/05/23 03:00:05;;;;;;;5.50;4.60;;;;;;;;;;5062149;28;20020;-60
2022/05/23 03:05:16;;;;;;;6.70;4.47;;;;;;;;;;5060145;28;20036;-60
2022/05/23 03:07:41;;;;;;;6.57;4.50;;;;;;;;;;5064557;28;20036;-60
2022/05/23 03:10:08;;;;;;;4.75;4.32;;;;;;;;;;5063145;28;20032;-60
2022/05/23 03:12:36;;;;;;;8.15;4.80;;;;;;;;;;5064224;28;20086;-58
2022/05/23 03:15:05;;;;;;;10.80;4.60;;;;;;;;;;5059956;28;20619;-60
2022/05/23 03:17:31;;;;;;;9.23;4.95;;;;;;;;;;5052283;28;20024;-60
2022/05/23 03:19:57;;;;;;;9.65;4.65;;;;;;;;;;5058909;28;20029;-60
2022/05/23 03:27:52;;;;;;;7.55;4.47;;;;;;;;;;5060757;28;20028;-60
2022/05/23 03:30:18;;;;;;;12.57;5.25;;;;;;;;;;5055266;28;20447;-60
2022/05/23 03:32:44;;;;;;;8.63;4.38;;;;;;;;;;5060065;28;20041;-60
2022/05/23 03:35:10;;;;;;;6.68;4.72;;;;;;;;;;5052356;28;20056;-60
2022/05/23 03:37:36;;;;;;;10.38;4.68;;;;;;;;;;5059273;28;20079;-60
2022/05/23 03:40:06;;;;;;;8.77;4.30;;;;;;;;;;5058077;28;20044;-60
2022/05/23 03:42:33;;;;;;;8.40;4.38;;;;;;;;;;5055448;28;20036;-60
2022/05/23 03:44:59;;;;;;;5.47;3.80;;;;;;;;;;5053233;28;20075;-60
2022/05/23 03:47:25;;;;;;;8.43;4.43;;;;;;;;;;5057936;28;20124;-60
2022/05/23 03:49:50;;;;;;;8.05;4.50;;;;;;;;;;5062331;28;20028;-60
2022/05/23 03:52:16;;;;;;;5.63;4.38;;;;;;;;;;5050040;28;20393;-60
2022/05/23 03:54:42;;;;;;;7.28;4.85;;;;;;;;;;5060058;28;20134;-60
2022/05/23 03:57:08;;;;;;;7.72;4.45;;;;;;;;;;5056682;28;20048;-60
2022/05/23 03:59:33;;;;;;;6.40;4.95;;;;;;;;;;5052763;28;20498;-60
2022/05/23 04:01:59;;;;;;;8.95;4.30;;;;;;;;;;5055610;28;20039;-60
2022/05/23 04:04:29;;;;;;;10.73;4.53;;;;;;;;;;5052256;28;20032;-60
2022/05/23 04:07:00;;;;;;;9.07;4.13;;;;;;;;;;5054070;28;20094;-60
2022/05/23 04:09:27;;;;;;;7.72;4.40;;;;;;;;;;5054711;28;20041;-60
2022/05/23 04:11:52;;;;;;;5.95;4.15;;;;;;;;;;5055781;28;20029;-60
2022/05/23 04:14:18;;;;;;;11.55;4.82;;;;;;;;;;5060103;28;20035;-60
2022/05/23 04:16:46;;;;;;;6.40;4.50;;;;;;;;;;5062318;28;20032;-60
2022/05/23 04:19:11;;;;;;;7.22;4.13;;;;;;;;;;5050789;28;20043;-60
2022/05/23 04:21:42;;;;;;;11.52;4.93;;;;;;;;;;5058604;28;20433;-60
2022/05/23 04:24:10;;;;;;;6.97;4.47;;;;;;;;;;5060162;28;20075;-60
2022/05/23 04:26:36;;;;;;;9.88;4.15;;;;;;;;;;5057447;28;20438;-60
2022/05/23 04:29:03;;;;;;;5.05;4.13;;;;;;;;;;5043757;28;20081;-60
2022/05/23 04:31:29;;;;;;;10.65;4.53;;;;;;;;;;5071863;28;20036;-60
2022/05/23 04:36:39;;;;;;;7.90;4.40;;;;;;;;;;5062977;28;20093;-60
2022/05/23 04:39:05;;;;;;;7.25;4.75;;;;;;;;;;5058248;28;20063;-60
2022/05/23 04:41:30;;;;;;;9.23;4.40;;;;;;;;;;5065921;28;20105;-60
2022/05/23 04:43:56;;;;;;;9.68;4.35;;;;;;;;;;5068674;28;20448;-59
2022/05/23 04:46:22;;;;;;;9.15;4.53;;;;;;;;;;5065991;28;20575;-60
2022/05/23 04:51:32;;;;;;;10.63;4.55;;;;;;;;;;5062949;28;20144;-60
2022/05/23 04:53:59;;;;;;;7.05;4.30;;;;;;;;;;5070232;28;20115;-59
2022/05/23 04:56:26;;;;;;;6.85;4.65;;;;;;;;;;5055695;28;20079;-60
2022/05/23 04:58:52;;;;;;;7.60;4.75;;;;;;;;;;5055184;28;20040;-60
2022/05/23 05:01:21;;;;;;;12.35;4.53;;;;;;;;;;5060056;28;20029;-60
2022/05/23 05:03:47;;;;;;;8.15;4.10;;;;;;;;;;5067253;28;20039;-60
2022/05/23 05:06:13;;;;;;;6.95;4.13;;;;;;;;;;5069476;28;20076;-60
2022/05/23 05:08:38;;;;;;;11.40;4.05;;;;;;;;;;5064252;28;20041;-59
2022/05/23 05:11:05;;;;;;;9.02;4.53;;;;;;;;;;5053171;28;20496;-60
2022/05/23 05:13:36;;;;;;;6.03;4.25;;;;;;;;;;5062664;28;20032;-61
2022/05/23 05:16:06;;;;;;;9.00;4.50;;;;;;;;;;5055784;28;20613;-60
2022/05/23 05:18:34;;;;;;;10.02;4.30;;;;;;;;;;5058682;28;20086;-60
2022/05/23 05:21:08;;;;;;;7.80;4.60;;;;;;;;;;5058822;28;20043;-60
2022/05/23 05:23:33;;;;;;;11.52;5.35;;;;;;;;;;5053152;28;20032;-60
2022/05/23 05:25:59;;;;;;;8.73;4.70;;;;;;;;;;5057416;28;20032;-59
2022/05/23 05:28:25;;;;;;;8.70;4.22;;;;;;;;;;5061264;28;20028;-60
2022/05/23 05:30:59;;;;;;;11.60;4.30;;;;;;;;;;5056736;28;20108;-60
2022/05/23 05:33:35;;;;;;;6.82;4.65;;;;;;;;;;5067271;28;20052;-60
2022/05/23 05:36:09;;;;;;;9.73;4.45;;;;;;;;;;5062875;28;20033;-60
2022/05/23 05:38:41;;;;;;;9.40;4.30;;;;;;;;;;5059956;28;20060;-58
2022/05/23 05:41:10;;;;;;;10.75;4.57;;;;;;;;;;5061448;28;20033;-60
2022/05/23 05:43:43;;;;;;;8.40;4.88;;;;;;;;;;5055275;28;20033;-60
2022/05/23 05:46:14;;;;;;;9.65;4.45;;;;;;;;;;5055891;28;20547;-60
2022/05/23 05:48:47;;;;;;;7.47;4.32;;;;;;;;;;5067058;28;20078;-60
2022/05/23 05:51:16;;;;;;;8.57;4.35;;;;;;;;;;5063297;28;20111;-60
2022/05/23 05:53:43;;;;;;;11.02;4.75;;;;;;;;;;5057666;28;20047;-60
2022/05/23 05:56:09;;;;;;;9.30;4.78;;;;;;;;;;5058962;28;20037;-60
2022/05/23 05:58:37;;;;;;;6.45;4.32;;;;;;;;;;5056539;28;20024;-60
2022/05/23 06:01:03;;;;;;;5.72;4.05;;;;;;;;;;5054033;28;20031;-60
2022/05/23 06:03:29;;;;;;;11.30;5.28;;;;;;;;;;5054060;28;20056;-60
2022/05/23 06:11:24;;;;;;;14.02;4.82;;;;;;;;;;5060960;28;20047;-60
2022/05/23 06:13:52;;;;;;;9.65;4.90;;;;;;;;;;5061340;28;20115;-60
2022/05/23 06:16:19;;;;;;;6.97;3.92;;;;;;;;;;5062117;28;20491;-60
2022/05/23 06:18:45;;;;;;;15.40;4.22;;;;;;;;;;5058852;28;20082;-60
2022/05/23 06:21:12;;;;;;;11.93;4.82;;;;;;;;;;5064324;28;20033;-61
2022/05/23 06:23:39;;;;;;;10.77;4.35;;;;;;;;;;5056305;28;20031;-60
2022/05/23 06:26:05;;;;;;;43.65;5.45;;;;;;;;;;5057506;28;20036;-60
2022/05/23 06:28:31;;;;;;;8.95;3.88;;;;;;;;;;5055768;28;20354;-60
2022/05/23 06:30:59;;;;;;;11.32;4.38;;;;;;;;;;5063589;28;20029;-60
2022/05/23 06:33:26;;;;;;;8.27;4.18;;;;;;;;;;5059483;28;20123;-60
2022/05/23 06:35:51;;;;;;;5.05;4.22;;;;;;;;;;5057265;28;20032;-60
2022/05/23 06:38:17;;;;;;;6.70;4.10;;;;;;;;;;5055585;28;20494;-60
2022/05/23 06:40:43;;;;;;;10.77;4.68;;;;;;;;;;5062572;28;20040;-60
2022/05/23 06:43:09;;;;;;;8.85;4.63;;;;;;;;;;5055015;28;20053;-60
2022/05/23 06:45:36;;;;;;;4.97;3.90;;;;;;;;;;5054671;28;20135;-60
2022/05/23 06:48:02;;;;;;;14.20;4.60;;;;;;;;;;5048950;28;20448;-60
2022/05/23 06:50:28;;;;;;;8.63;4.28;;;;;;;;;;5066379;28;20036;-60
2022/05/23 06:52:53;;;;;;;7.97;3.95;;;;;;;;;;5051059;28;20139;-60
2022/05/23 06:55:19;;;;;;;7.05;4.22;;;;;;;;;;5060409;28;20044;-59
2022/05/23 06:57:46;;;;;;;9.30;4.10;;;;;;;;;;5062611;28;20036;-60
2022/05/23 07:00:12;;;;;;;9.60;4.40;;;;;;;;;;5057489;28;20031;-60
2022/05/23 07:02:38;;;;;;;10.77;4.15;;;;;;;;;;5060406;28;20032;-60
2022/05/23 07:13:18;;;;;;;11.90;4.32;;;;;;;;;;5055969;28;20430;-60
2022/05/23 07:15:48;;;;;;;6.85;3.88;;;;;;;;;;5062962;28;20071;-61
2022/05/23 07:18:16;;;;;;;9.07;3.67;;;;;;;;;;5051858;28;20057;-60
2022/05/23 07:20:41;;;;;;;11.27;4.30;;;;;;;;;;5063919;28;20040;-60
2022/05/23 07:23:08;;;;;;;15.52;4.05;;;;;;;;;;5058729;28;20033;-60
2022/05/23 07:25:34;;;;;;;7.13;3.72;;;;;;;;;;5060735;28;20363;-61
2022/05/23 07:27:59;;;;;;;4.82;3.70;;;;;;;;;;5070871;28;20031;-60
2022/05/23 07:30:25;;;;;;;15.50;4.53;;;;;;;;;;5061500;28;20067;-60
2022/05/23 07:32:51;;;;;;;6.47;4.22;;;;;;;;;;5056200;28;20024;-60
2022/05/23 07:35:17;;;;;;;8.07;4.25;;;;;;;;;;5052652;28;20103;-60
2022/05/23 07:37:43;;;;;;;24.33;4.53;;;;;;;;;;5055768;28;20037;-60
2022/05/23 07:40:09;;;;;;;8.60;4.38;;;;;;;;;;5047670;28;20031;-60
2022/05/23 07:42:35;;;;;;;12.93;4.65;;;;;;;;;;5061249;28;20048;-60
2022/05/23 07:45:01;;;;;;;8.65;3.60;;;;;;;;;;5060744;28;20595;-60
2022/05/23 07:47:28;;;;;;;10.27;3.83;;;;;;;;;;5056777;28;20098;-60
2022/05/23 07:49:54;;;;;;;7.47;3.45;;;;;;;;;;5054530;28;20493;-61
2022/05/23 07:52:20;;;;;;;6.82;3.80;;;;;;;;;;5060080;28;20039;-61
2022/05/23 08:00:31;;;;;;;8.90;3.70;;;;;;;;;;5058339;28;20037;-61
2022/05/23 08:03:03;;;;;;;10.77;3.80;;;;;;;;;;5056831;28;20040;-60
2022/05/23 08:05:29;;;;;;;7.13;3.67;;;;;;;;;;5067955;28;20111;-60
2022/05/23 08:07:56;;;;;;;10.05;3.17;;;;;;;;;;5063775;28;20035;-61
2022/05/23 08:10:22;;;;;;;7.35;3.45;;;;;;;;;;5061070;28;20040;-61
2022/05/23 08:12:52;;;;;;;6.55;3.33;;;;;;;;;;5069464;28;20126;-61
2022/05/23 08:15:20;;;;;;;7.50;3.20;;;;;;;;;;5058801;28;20523;-60
2022/05/23 08:17:46;;;;;;;9.10;3.00;;;;;;;;;;5058852;28;20024;-61
2022/05/23 08:20:11;;;;;;;6.45;3.35;;;;;;;;;;5060419;28;20496;-60
2022/05/23 08:22:38;;;;;;;7.30;3.53;;;;;;;;;;5062452;28;20048;-61
2022/05/23 08:25:05;;;;;;;6.20;3.03;;;;;;;;;;5063505;28;20036;-61
2022/05/23 08:27:31;;;;;;;9.25;3.00;;;;;;;;;;5061284;28;20074;-60
2022/05/23 08:29:56;;;;;;;10.65;3.40;;;;;;;;;;5064448;28;20025;-61
2022/05/23 08:32:22;;;;;;;5.65;3.05;;;;;;;;;;5059762;28;20758;-61
2022/05/23 08:34:48;;;;;;;8.98;2.97;;;;;;;;;;5058663;28;20408;-61
2022/05/23 08:37:14;;;;;;;7.90;3.00;;;;;;;;;;5062544;28;20098;-61
2022/05/23 08:39:41;;;;;;;9.63;3.15;;;;;;;;;;5064325;28;20037;-62
2022/05/23 08:42:17;;;;;;;4.57;2.75;;;;;;;;;;5071432;28;20120;-61
2022/05/23 08:44:46;;;;;;;8.88;3.45;;;;;;;;;;5059394;28;20390;-61
2022/05/23 08:47:33;;;;;;;10.32;3.70;;;;;;;;;;5060033;28;20016;-61
2022/05/23 08:50:09;;;;;;;7.32;3.75;;;;;;;;;;5071857;28;20021;-60
2022/05/23 08:52:44;;;;;;;7.90;3.28;;;;;;;;;;5057915;28;20111;-61
2022/05/23 08:55:25;;;;;;;8.10;3.63;;;;;;;;;;5063639;28;20613;-61
2022/05/23 08:58:10;;;;;;;12.93;3.25;;;;;;;;;;5064486;28;20493;-61
2022/05/23 09:01:07;;;;;;;8.15;3.25;;;;;;;;;;5056890;28;20080;-62
2022/05/23 09:04:00;;;;;;;12.85;3.55;;;;;;;;;;5062584;28;20427;-61
2022/05/23 09:06:34;;;;;;;7.65;3.47;;;;;;;;;;5066439;28;20020;-62
2022/05/23 09:09:04;;;;;;;7.63;3.45;;;;;;;;;;5052446;28;20485;-62
2022/05/23 09:11:38;;;;;;;12.13;3.70;;;;;;;;;;5057113;28;20476;-61
2022/05/23 09:14:09;;;;;;;6.53;3.35;;;;;;;;;;5062474;28;20021;-62
2022/05/23 09:16:46;;;;;;;5.38;3.65;;;;;;;;;;5067095;28;20651;-60
2022/05/23 09:19:33;;;;;;;9.93;3.53;;;;;;;;;;5060538;28;20040;-61
2022/05/23 09:22:23;;;;;;;12.38;3.67;;;;;;;;;;5056708;28;20029;-62
2022/05/23 09:24:57;;;;;;;6.78;3.25;;;;;;;;;;5058296;28;20107;-62
2022/05/23 09:27:35;;;;;;;12.05;3.88;;;;;;;;;;5065569;28;20074;-62
2022/05/23 09:30:03;;;;;;;7.13;3.40;;;;;;;;;;5054829;28;20683;-61
2022/05/23 09:32:36;;;;;;;19.73;3.63;;;;;;;;;;5065434;28;20469;-61
2022/05/23 09:35:27;;;;;;;14.88;3.70;;;;;;;;;;5054059;28;20107;-62
2022/05/23 09:38:11;;;;;;;7.55;2.92;;;;;;;;;;5064059;28;20419;-61
2022/05/23 09:40:40;;;;;;;11.48;3.45;;;;;;;;;;5059051;28;20119;-62
2022/05/23 09:49:18;;;;;;;4.70;2.85;;;;;;;;;;5064911;28;20032;-61
2022/05/23 09:51:47;;;;;;;9.85;4.13;;;;;;;;;;5066663;28;20509;-61
2022/05/23 09:54:40;;;;;;;13.85;3.95;;;;;;;;;;5060696;28;20036;-61
2022/05/23 09:57:32;;;;;;;8.35;3.13;;;;;;;;;;5050473;28;20037;-62
2022/05/23 10:00:06;;;;;;;9.80;3.40;;;;;;;;;;5061081;28;20032;-61
2022/05/23 10:02:39;;;;;;;10.40;3.55;;;;;;;;;;5061114;28;20100;-62
2022/05/23 10:05:25;;;;;;;14.38;3.58;;;;;;;;;;5059370;28;20523;-61
2022/05/23 10:07:55;;;;;;;8.07;3.30;;;;;;;;;;5056574;28;20045;-61
2022/05/23 10:10:32;;;;;;;7.35;3.00;;;;;;;;;;5061423;28;20057;-62
2022/05/23 10:13:28;;;;;;;7.15;2.97;;;;;;;;;;5058154;28;20238;-61
2022/05/23 10:16:00;;;;;;;12.93;3.50;;;;;;;;;;5061356;28;20033;-62
2022/05/23 10:18:29;;;;;;;6.65;3.13;;;;;;;;;;5055855;28;20079;-62
2022/05/23 10:20:57;;;;;;;12.77;3.67;;;;;;;;;;5064589;28;20058;-62
2022/05/23 10:23:29;;;;;;;7.80;2.97;;;;;;;;;;5052380;28;20025;-61
2022/05/23 10:26:03;;;;;;;11.02;3.55;;;;;;;;;;5060149;28;20363;-61
2022/05/23 10:28:36;;;;;;;15.48;3.85;;;;;;;;;;5059117;28;20020;-62
2022/05/23 10:31:06;;;;;;;6.70;3.45;;;;;;;;;;5063033;28;20096;-61
2022/05/23 10:33:33;;;;;;;13.00;2.83;;;;;;;;;;5058490;28;20029;-61
2022/05/23 10:36:16;;;;;;;10.38;3.67;;;;;;;;;;5060314;28;20058;-62
2022/05/23 10:42:11;;;;;;;9.75;3.70;;;;;;;;;;5060810;28;20069;-62
2022/05/23 10:45:16;;;;;;;6.63;3.58;;;;;;;;;;5057803;28;20039;-62
2022/05/23 10:48:01;;;;;;;7.35;3.42;;;;;;;;;;4994650;28;20598;-62
2022/05/23 10:50:41;;;;;;;9.73;3.50;;;;;;;;;;4994565;28;20041;-62
2022/05/23 10:53:15;;;;;;;5.78;3.45;;;;;;;;;;4997353;28;20144;-62
2022/05/23 10:55:54;;;;;;;8.30;3.53;;;;;;;;;;4997059;28;20050;-61
2022/05/23 10:58:45;;;;;;;7.90;4.22;;;;;;;;;;4995759;28;20037;-62
2022/05/23 11:01:32;;;;;;;11.18;3.40;;;;;;;;;;4997616;28;20041;-62
2022/05/23 11:04:19;;;;;;;7.32;3.65;;;;;;;;;;4992167;28;20042;-62
2022/05/23 11:07:05;;;;;;;6.18;3.47;;;;;;;;;;4992661;28;20068;-62
2022/05/23 11:09:48;;;;;;;6.47;3.20;;;;;;;;;;4997559;28;20041;-62
2022/05/23 11:12:36;;;;;;;6.35;3.65;;;;;;;;;;4994318;28;20563;-61
2022/05/23 11:15:13;;;;;;;17.67;4.13;;;;;;;;;;4980279;28;20875;-61
2022/05/23 11:17:55;;;;;;;16.95;4.07;;;;;;;;;;5006812;28;20036;-62
2022/05/23 11:20:26;;;;;;;13.07;3.65;;;;;;;;;;5062653;28;20029;-61
2022/05/23 11:23:13;;;;;;;8.00;3.75;;;;;;;;;;5057947;28;20496;-62
2022/05/23 11:25:44;;;;;;;5.22;3.30;;;;;;;;;;5055514;28;20041;-62
2022/05/23 11:34:23;;;;;;;8.75;3.20;;;;;;;;;;5051982;28;20038;-63
2022/05/23 11:37:01;;;;;;;10.50;4.00;;;;;;;;;;5066768;28;20044;-62
2022/05/23 11:39:50;;;;;;;7.35;3.53;;;;;;;;;;5062743;28;20030;-62
2022/05/23 11:42:22;;;;;;;11.57;3.63;;;;;;;;;;5066950;28;20489;-62
2022/05/23 11:44:51;;;;;;;;;;;;;;;;;;5059245;28;20036;-62
2022/05/23 11:47:21;;;;;;;13.30;3.50;;;;;;;;;;5065113;28;19920;-61
2022/05/23 11:49:59;;;;;;;7.53;3.20;;;;;;;;;;5066339;28;20392;-63
2022/05/23 11:52:41;;;;;;;15.20;3.25;;;;;;;;;;5071592;28;20094;-63
2022/05/23 11:55:09;;;;;;;6.53;3.40;;;;;;;;;;5067044;28;22424;-62
2022/05/23 11:57:38;;;;;;;9.02;3.30;;;;;;;;;;5061588;28;20807;-63
2022/05/23 12:00:27;;;;;;;7.22;3.45;;;;;;;;;;5058724;28;20086;-62
2022/05/23 12:03:22;;;;;;;10.52;3.35;;;;;;;;;;5058186;28;20039;-64
2022/05/23 12:06:15;;;;;;;8.52;3.60;;;;;;;;;;5050326;28;20156;-63
2022/05/23 12:08:58;;;;;;;8.52;2.90;;;;;;;;;;5063213;28;20048;-63
2022/05/23 12:11:33;;;;;;;15.93;3.60;;;;;;;;;;5067113;28;20546;-63
2022/05/23 12:14:33;;;;;;;9.68;3.00;;;;;;;;;;5054877;28;20028;-63
2022/05/23 12:17:08;;;;;;;8.93;3.60;;;;;;;;;;5054493;28;20453;-63
2022/05/23 12:19:40;;;;;;;4.15;2.83;;;;;;;;;;5064945;28;20032;-62
2022/05/23 12:22:26;;;;;;;9.63;2.90;;;;;;;;;;5065878;28;20043;-63
2022/05/23 12:25:00;;;;;;;7.85;3.22;;;;;;;;;;5059700;28;20042;-63
2022/05/23 12:27:28;;;;;;;13.10;2.85;;;;;;;;;;5057847;28;20079;-63
2022/05/23 12:30:24;;;;;;;10.57;2.92;;;;;;;;;;5068957;28;20035;-63
2022/05/23 12:32:55;;;;;;;15.27;2.45;;;;;;;;;;5053517;28;20385;-62
2022/05/23 12:35:39;;;;;;;5.97;2.33;;;;;;;;;;5055594;28;20085;-62
2022/05/23 12:38:17;;;;;;;11.50;2.72;;;;;;;;;;5066920;28;20028;-62
2022/05/23 12:40:49;;;;;;;7.00;2.30;;;;;;;;;;5062875;28;20415;-62
2022/05/23 12:43:54;;;;;;;7.15;2.10;;;;;;;;;;5052954;28;20102;-62
2022/05/23 12:46:29;;;;;;;5.53;2.35;;;;;;;;;;5054192;28;20035;-62
2022/05/23 12:49:08;;;;;;;6.15;2.13;;;;;;;;;;5067037;28;20404;-63
2022/05/23 12:51:58;;;;;;;6.20;2.20;;;;;;;;;;5060719;28;20452;-62
2022/05/23 12:54:36;;;;;;;5.47;2.42;;;;;;;;;;5059714;28;20496;-63
2022/05/23 12:57:13;;;;;;;4.65;2.30;;;;;;;;;;5066636;28;20029;-62
2022/05/23 12:59:56;;;;;;;5.22;2.50;;;;;;;;;;5059463;28;20016;-62
2022/05/23 13:02:25;;;;;;;4.57;2.35;;;;;;;;;;5063010;28;20543;-63
2022/05/23 13:05:01;;;;;;;3.72;2.20;;;;;;;;;;5063503;28;20037;-63
2022/05/23 13:08:11;;;;;;;6.32;2.20;;;;;;;;;;5062096;28;20029;-63
2022/05/23 13:10:42;;;;;;;7.03;2.30;;;;;;;;;;5017371;28;20050;-62
2022/05/23 13:13:14;;;;;;;;;;;;;;;;;;5015621;28;20065;-63
2022/05/23 13:15:39;;;;;;;6.88;2.40;;;;;;;;;;5019607;28;19979;-63
2022/05/23 13:23:43;;;;;;;10.52;3.05;;;;;;;;;;5015207;28;20670;-63
2022/05/23 13:26:10;;;;;;;7.60;2.50;;;;;;;;;;5016306;28;20160;-62
2022/05/23 13:28:41;;;;;;;7.55;2.55;;;;;;;;;;5022506;28;20129;-62
2022/05/23 13:31:26;;;;;;;9.20;2.40;;;;;;;;;;5018814;28;20045;-63
2022/05/23 13:33:54;;;;;;;8.65;2.33;;;;;;;;;;5015365;28;20117;-62
2022/05/23 13:36:20;;;;;;;19.85;3.15;;;;;;;;;;5019337;28;20033;-63
2022/05/23 13:39:07;;;;;;;12.40;2.70;;;;;;;;;;5020815;28;20041;-63
2022/05/23 13:41:32;;;;;;;9.07;2.58;;;;;;;;;;5003317;28;20090;-62
2022/05/23 13:43:58;;;;;;;9.63;2.72;;;;;;;;;;5023182;28;20034;-62
2022/05/23 13:46:29;;;;;;;7.53;2.45;;;;;;;;;;5015946;28;20398;-62
2022/05/23 13:49:16;;;;;;;11.47;3.00;;;;;;;;;;5053771;28;20052;-63
2022/05/23 13:51:51;;;;;;;12.77;2.47;;;;;;;;;;5059033;28;20057;-63
2022/05/23 13:54:20;;;;;;;8.27;2.45;;;;;;;;;;5060288;28;20053;-63
2022/05/23 13:56:56;;;;;;;10.73;2.70;;;;;;;;;;5059260;28;20072;-63
2022/05/23 13:59:29;;;;;;;12.93;2.30;;;;;;;;;;5056055;28;20090;-63
2022/05/23 14:02:00;;;;;;;7.00;2.45;;;;;;;;;;5059923;28;20033;-61
2022/05/23 14:04:34;;;;;;;11.93;2.60;;;;;;;;;;5060002;28;20039;-63
2022/05/23 14:07:09;;;;;;;5.65;2.35;;;;;;;;;;5057216;28;20049;-63
2022/05/23 14:09:40;;;;;;;6.38;2.25;;;;;;;;;;5072353;28;20050;-62
2022/05/23 14:12:11;;;;;;;6.57;2.05;;;;;;;;;;5053975;28;20090;-63
2022/05/23 14:14:43;;;;;;;12.03;2.50;;;;;;;;;;5053571;28;20064;-63
2022/05/23 14:17:13;;;;;;;;;;;;;;;;;;5054220;28;20349;-63
2022/05/23 14:19:45;;;;;;;8.77;2.45;;;;;;;;;;5055090;28;19978;-62
2022/05/23 14:22:25;;;;;;;11.10;2.72;;;;;;;;;;5056661;28;20047;-62
2022/05/23 14:24:58;;;;;;;5.55;2.60;;;;;;;;;;5056088;28;20079;-62
2022/05/23 14:27:44;;;;;;;5.78;2.10;;;;;;;;;;5052321;28;20068;-62
2022/05/23 14:30:15;;;;;;;6.25;2.47;;;;;;;;;;5058379;28;20057;-62
2022/05/23 14:32:42;;;;;;;14.67;2.90;;;;;;;;;;5060694;28;20047;-63
2022/05/23 14:35:16;;;;;;;7.05;2.40;;;;;;;;;;5062589;28;20163;-62
2022/05/23 14:37:43;;;;;;;11.52;2.35;;;;;;;;;;5057838;28;20558;-62
2022/05/23 14:40:13;;;;;;;7.68;2.97;;;;;;;;;;5054302;28;20040;-62
2022/05/23 14:42:50;;;;;;;8.00;2.40;;;;;;;;;;5059006;28;20613;-62
2022/05/23 14:45:29;;;;;;;7.93;2.83;;;;;;;;;;5054830;28;20028;-62
2022/05/23 14:48:07;;;;;;;6.70;2.40;;;;;;;;;;5056833;28;20497;-61
2022/05/23 14:50:42;;;;;;;6.20;2.58;;;;;;;;;;5056651;28;20123;-62
2022/05/23 14:55:56;;;;;;;6.18;2.45;;;;;;;;;;5056708;28;20040;-62
2022/05/23 15:01:17;;;;;;;4.60;2.65;;;;;;;;;;5060848;28;20024;-63
2022/05/23 15:03:45;;;;;;;5.18;2.83;;;;;;;;;;5052200;28;20074;-63
2022/05/23 15:06:11;;;;;;;5.13;2.50;;;;;;;;;;5053077;28;20116;-62
2022/05/23 15:08:38;;;;;;;6.78;2.17;;;;;;;;;;5057810;28;20561;-62
2022/05/23 15:11:05;;;;;;;6.65;2.55;;;;;;;;;;5058865;28;20066;-62
2022/05/23 15:13:35;;;;;;;5.97;2.30;;;;;;;;;;5065818;28;20032;-62
2022/05/23 15:16:03;;;;;;;6.50;2.90;;;;;;;;;;5050312;28;20029;-61
2022/05/23 15:18:31;;;;;;;7.38;2.53;;;;;;;;;;5047387;28;20029;-62
2022/05/23 15:20:58;;;;;;;5.70;2.75;;;;;;;;;;5062603;28;20044;-62
2022/05/23 15:23:24;;;;;;;6.82;2.47;;;;;;;;;;5061731;28;20066;-62
2022/05/23 15:25:50;;;;;;;3.50;2.20;;;;;;;;;;5058971;28;20024;-62
2022/05/23 15:28:16;;;;;;;6.13;2.47;;;;;;;;;;5056056;28;20063;-62
2022/05/23 15:30:43;;;;;;;8.80;2.67;;;;;;;;;;5058736;28;20064;-62
2022/05/23 15:33:09;;;;;;;5.43;2.80;;;;;;;;;;5056923;28;20036;-62
2022/05/23 15:35:34;;;;;;;6.38;2.65;;;;;;;;;;5037942;28;20556;-62
2022/05/23 15:38:00;;;;;;;6.95;2.30;;;;;;;;;;5062410;28;20043;-62
2022/05/23 15:40:28;;;;;;;7.85;2.95;;;;;;;;;;5067514;28;20142;-62
2022/05/23 15:42:54;;;;;;;6.65;2.50;;;;;;;;;;5059601;28;21062;-62
2022/05/23 15:45:32;;;;;;;6.60;2.80;;;;;;;;;;5056849;28;20036;-63
2022/05/23 15:48:07;;;;;;;9.43;2.72;;;;;;;;;;5057277;28;20039;-62
2022/05/23 15:50:33;;;;;;;8.85;3.22;;;;;;;;;;5061623;28;20473;-62
2022/05/23 15:52:59;;;;;;;6.70;2.55;;;;;;;;;;5056983;28;20135;-62
2022/05/23 15:55:27;;;;;;;8.20;2.85;;;;;;;;;;5055993;28;20037;-62
2022/05/23 15:57:55;;;;;;;12.30;3.00;;;;;;;;;;5056428;28;20041;-62
2022/05/23 16:00:24;;;;;;;14.40;2.90;;;;;;;;;;5052393;28;20044;-62
2022/05/23 16:02:51;;;;;;;8.68;2.90;;;;;;;;;;5052791;28;20047;-62
2022/05/23 16:05:18;;;;;;;6.53;3.20;;;;;;;;;;5054937;28;20063;-64
2022/05/23 16:07:44;;;;;;;7.28;2.85;;;;;;;;;;5055835;28;20436;-66
2022/05/23 16:10:11;;;;;;;10.40;2.80;;;;;;;;;;5046800;28;20028;-67
2022/05/23 16:12:40;;;;;;;7.20;2.65;;;;;;;;;;5053487;28;20245;-67